Time;durP1;ratioP1;P1;durP2;ratioP2;P2;SDS_P1;SDS_P2;PMS_P1;PMS_P2;Temp;Humidity;BMP_temperature;BMP_pressure;BME280_temperature;BME280_humidity;BME280_pressure;Samples;Min_cycle;Max_cycle;Signal;HPM_P1;HPM_P2
2021/09/24 00:01:20;;;;;;;8.13;4.65;;;14.30;3.70;;;;;;5059964;28;20566;-69
2021/09/24 00:03:49;;;;;;;6.22;4.43;;;14.20;4.40;;;;;;5057772;28;20097;-69
2021/09/24 00:06:20;;;;;;;8.50;4.35;;;14.10;4.80;;;;;;5051687;28;20058;-69
2021/09/24 00:08:51;;;;;;;8.38;4.20;;;14.10;5.40;;;;;;5062809;28;20055;-71
2021/09/24 00:11:19;;;;;;;7.97;4.53;;;14.10;5.50;;;;;;5057938;28;20063;-69
2021/09/24 00:13:48;;;;;;;4.65;4.07;;;14.00;5.60;;;;;;5058794;28;20050;-68
2021/09/24 00:16:16;;;;;;;6.90;4.50;;;14.10;5.60;;;;;;5059277;28;20052;-68
2021/09/24 00:18:45;;;;;;;6.70;4.05;;;14.10;5.60;;;;;;5060772;28;20080;-68
2021/09/24 00:21:16;;;;;;;7.28;4.43;;;14.00;5.60;;;;;;5042407;28;20424;-69
2021/09/24 00:23:48;;;;;;;8.05;4.90;;;14.00;6.00;;;;;;5045116;28;20048;-69
2021/09/24 00:26:17;;;;;;;8.70;4.78;;;14.00;6.60;;;;;;5040259;28;20048;-70
2021/09/24 00:28:48;;;;;;;7.20;4.32;;;13.90;6.70;;;;;;5039293;28;20094;-69
2021/09/24 00:31:18;;;;;;;6.53;5.20;;;13.80;7.40;;;;;;5040393;28;20053;-70
2021/09/24 00:33:47;;;;;;;8.13;4.93;;;13.80;7.60;;;;;;5044865;28;20514;-69
2021/09/24 00:36:15;;;;;;;8.07;5.75;;;13.70;8.50;;;;;;5028920;28;20048;-68
2021/09/24 00:38:43;;;;;;;9.98;5.38;;;13.60;8.50;;;;;;5042623;28;20060;-69
2021/09/24 00:41:13;;;;;;;5.50;4.80;;;13.60;8.60;;;;;;5038214;28;20057;-69
2021/09/24 00:43:43;;;;;;;7.80;4.90;;;13.60;8.80;;;;;;5042018;28;20049;-69
2021/09/24 00:46:12;;;;;;;5.63;4.50;;;13.60;9.30;;;;;;5058446;28;20056;-69
2021/09/24 00:48:42;;;;;;;7.40;5.10;;;13.60;9.60;;;;;;5064424;28;20136;-69
2021/09/24 00:51:10;;;;;;;7.07;4.90;;;13.50;9.80;;;;;;5043790;28;20068;-69
2021/09/24 00:53:39;;;;;;;6.65;5.18;;;13.50;10.20;;;;;;5048553;28;20052;-69
2021/09/24 00:56:09;;;;;;;11.15;5.45;;;13.50;10.20;;;;;;5027007;28;20045;-69
2021/09/24 00:58:42;;;;;;;7.63;5.10;;;13.50;10.10;;;;;;5065611;28;20444;-69
2021/09/24 01:01:11;;;;;;;5.50;4.65;;;13.50;10.10;;;;;;5064435;28;20033;-69
2021/09/24 01:03:39;;;;;;;10.20;5.07;;;13.50;10.10;;;;;;5044843;28;20501;-70
2021/09/24 01:06:09;;;;;;;8.65;5.45;;;13.50;10.10;;;;;;5029086;28;20041;-68
2021/09/24 01:08:38;;;;;;;8.32;5.35;;;13.50;10.20;;;;;;5062293;28;20075;-69
2021/09/24 01:11:08;;;;;;;8.23;5.80;;;13.60;10.20;;;;;;5041932;28;20045;-70
2021/09/24 01:13:36;;;;;;;6.20;4.55;;;13.60;9.50;;;;;;5066473;28;20048;-69
2021/09/24 01:16:11;;;;;;;5.88;4.40;;;13.60;10.20;;;;;;5061589;28;20055;-70
2021/09/24 01:18:39;;;;;;;5.13;4.38;;;13.60;9.70;;;;;;5064826;28;20052;-69
2021/09/24 01:21:13;;;;;;;6.25;4.82;;;13.60;9.90;;;;;;5063489;28;20045;-69
2021/09/24 01:23:42;;;;;;;6.80;4.78;;;13.60;10.20;;;;;;5063644;28;20047;-69
2021/09/24 01:26:12;;;;;;;6.55;4.95;;;13.50;10.20;;;;;;5063170;28;20045;-69
2021/09/24 01:28:44;;;;;;;8.48;5.22;;;13.60;10.20;;;;;;5062952;28;20049;-69
2021/09/24 01:31:14;;;;;;;10.03;5.57;;;13.60;10.20;;;;;;5063823;28;20049;-69
2021/09/24 01:33:44;;;;;;;5.30;4.60;;;13.50;10.20;;;;;;5061474;28;20044;-69
2021/09/24 01:36:15;;;;;;;6.25;5.07;;;13.60;10.20;;;;;;5063764;28;20396;-69
2021/09/24 01:38:43;;;;;;;8.07;5.18;;;13.50;10.20;;;;;;5063236;28;20094;-69
2021/09/24 01:41:12;;;;;;;6.97;5.00;;;13.50;10.20;;;;;;5067541;28;20049;-69
2021/09/24 01:43:40;;;;;;;7.72;5.10;;;13.50;10.20;;;;;;5057864;28;20055;-69
2021/09/24 01:46:11;;;;;;;7.55;5.40;;;13.50;10.20;;;;;;5051452;28;20137;-71
2021/09/24 01:48:43;;;;;;;8.90;5.30;;;13.50;10.20;;;;;;5068656;28;20056;-69
2021/09/24 01:51:11;;;;;;;9.80;5.80;;;13.50;10.20;;;;;;5063885;28;20044;-69
2021/09/24 01:53:40;;;;;;;8.23;5.15;;;13.50;10.50;;;;;;5059056;28;20086;-69
2021/09/24 01:56:10;;;;;;;8.10;5.15;;;13.50;10.60;;;;;;5063375;28;20132;-69
2021/09/24 01:58:38;;;;;;;6.20;4.90;;;13.50;10.40;;;;;;5065437;28;20520;-69
2021/09/24 02:01:07;;;;;;;6.97;5.25;;;13.50;10.20;;;;;;5057746;28;20123;-69
2021/09/24 02:03:35;;;;;;;7.40;5.20;;;13.60;10.30;;;;;;5066414;28;20478;-69
2021/09/24 02:06:04;;;;;;;6.43;5.10;;;13.60;10.30;;;;;;5059855;28;20037;-70
2021/09/24 02:08:42;;;;;;;6.82;5.40;;;13.60;10.20;;;;;;5058655;28;20090;-69
2021/09/24 02:11:11;;;;;;;7.20;5.70;;;13.60;10.20;;;;;;5059019;28;20076;-69
2021/09/24 02:13:41;;;;;;;8.18;5.50;;;13.60;10.20;;;;;;5032561;28;22351;-69
2021/09/24 02:16:11;;;;;;;7.63;5.10;;;13.60;10.70;;;;;;5059520;28;20045;-69
2021/09/24 02:18:41;;;;;;;8.13;4.95;;;13.60;10.20;;;;;;5066217;28;20092;-69
2021/09/24 02:21:14;;;;;;;10.70;5.10;;;13.60;10.20;;;;;;5067259;28;20094;-70
2021/09/24 02:23:43;;;;;;;7.70;5.43;;;13.70;9.80;;;;;;5062677;28;20056;-70
2021/09/24 02:26:11;;;;;;;6.88;5.22;;;13.70;9.80;;;;;;5058381;28;20408;-70
2021/09/24 02:28:43;;;;;;;6.47;5.35;;;13.70;9.80;;;;;;5060658;28;20041;-70
2021/09/24 02:31:14;;;;;;;9.35;5.25;;;13.70;9.60;;;;;;5069048;28;20624;-70
2021/09/24 02:33:44;;;;;;;7.15;5.18;;;13.80;9.90;;;;;;5060893;28;20133;-70
2021/09/24 02:36:12;;;;;;;8.73;5.18;;;13.80;9.60;;;;;;5060671;28;20578;-70
2021/09/24 02:38:40;;;;;;;8.80;5.47;;;13.80;9.50;;;;;;5064885;28;20056;-70
2021/09/24 02:41:11;;;;;;;7.97;5.07;;;13.90;9.30;;;;;;5042242;28;20053;-70
2021/09/24 02:43:44;;;;;;;14.38;5.40;;;13.90;9.00;;;;;;5063753;28;20048;-70
2021/09/24 02:46:13;;;;;;;6.47;5.25;;;13.90;9.20;;;;;;5065636;28;20045;-69
2021/09/24 02:48:41;;;;;;;6.10;5.10;;;13.80;9.70;;;;;;5063436;28;20045;-69
2021/09/24 02:51:09;;;;;;;7.05;5.60;;;13.80;9.80;;;;;;5040018;28;20127;-69
2021/09/24 02:53:38;;;;;;;8.23;5.18;;;13.80;9.60;;;;;;5066148;28;20048;-70
2021/09/24 02:56:10;;;;;;;11.50;5.78;;;13.70;9.50;;;;;;5041467;28;20044;-68
2021/09/24 02:58:38;;;;;;;7.20;5.00;;;13.70;9.80;;;;;;5061469;28;20132;-69
2021/09/24 03:01:08;;;;;;;10.23;5.55;;;13.70;10.80;;;;;;5060161;28;20048;-69
2021/09/24 03:03:38;;;;;;;8.30;5.32;;;13.60;10.20;;;;;;5043229;28;20060;-69
2021/09/24 03:06:07;;;;;;;8.55;5.95;;;13.60;10.30;;;;;;5058690;28;20546;-69
2021/09/24 03:08:36;;;;;;;8.30;5.80;;;13.50;10.70;;;;;;5057837;28;20263;-69
2021/09/24 03:11:04;;;;;;;10.13;5.50;;;13.40;11.10;;;;;;5059039;28;20330;-68
2021/09/24 03:13:35;;;;;;;10.50;5.53;;;13.40;11.70;;;;;;5059058;28;20059;-69
2021/09/24 03:16:07;;;;;;;6.25;5.03;;;13.30;12.60;;;;;;5038350;28;20040;-69
2021/09/24 03:18:39;;;;;;;8.80;5.55;;;13.20;13.10;;;;;;5012425;28;20036;-68
2021/09/24 03:21:07;;;;;;;9.55;5.72;;;13.10;13.50;;;;;;5060108;28;20050;-69
2021/09/24 03:23:38;;;;;;;13.05;5.90;;;13.10;14.10;;;;;;5055006;28;20056;-69
2021/09/24 03:26:07;;;;;;;7.82;5.28;;;13.10;14.50;;;;;;5062587;28;20043;-69
2021/09/24 03:28:37;;;;;;;11.55;5.78;;;13.00;15.00;;;;;;5063355;28;20060;-69
2021/09/24 03:31:05;;;;;;;9.18;6.10;;;13.10;14.40;;;;;;5057363;28;20040;-69
2021/09/24 03:33:37;;;;;;;10.57;5.57;;;13.10;14.40;;;;;;5059590;28;20052;-69
2021/09/24 03:36:06;;;;;;;7.70;5.47;;;13.10;14.00;;;;;;5061914;28;20048;-69
2021/09/24 03:38:35;;;;;;;7.07;5.60;;;13.10;14.00;;;;;;5056949;28;20055;-68
2021/09/24 03:41:03;;;;;;;10.25;6.03;;;13.10;14.40;;;;;;5058999;28;20137;-68
2021/09/24 03:43:34;;;;;;;6.20;5.30;;;13.10;14.90;;;;;;5063813;28;20040;-69
2021/09/24 03:46:05;;;;;;;7.30;5.50;;;13.10;14.60;;;;;;5057358;28;20056;-69
2021/09/24 03:48:33;;;;;;;10.75;6.00;;;13.10;14.40;;;;;;5058256;28;20131;-69
2021/09/24 03:51:01;;;;;;;6.85;5.80;;;13.10;14.50;;;;;;5062389;28;20048;-69
2021/09/24 03:53:33;;;;;;;7.32;5.70;;;13.10;14.40;;;;;;5059516;28;20043;-69
2021/09/24 03:56:05;;;;;;;6.93;5.78;;;13.10;14.70;;;;;;5059589;28;20112;-69
2021/09/24 03:58:34;;;;;;;10.52;6.03;;;13.10;14.60;;;;;;5061870;28;20053;-70
2021/09/24 04:01:04;;;;;;;7.43;5.18;;;13.10;14.70;;;;;;5060754;28;20056;-68
2021/09/24 04:03:33;;;;;;;7.78;5.60;;;13.10;14.80;;;;;;5056879;28;20048;-69
2021/09/24 04:06:04;;;;;;;8.18;5.70;;;13.10;14.80;;;;;;5056174;28;20043;-70
2021/09/24 04:08:37;;;;;;;11.32;6.72;;;13.10;14.90;;;;;;5062210;28;20123;-69
2021/09/24 04:11:08;;;;;;;7.15;5.63;;;13.10;14.90;;;;;;5051745;28;20662;-69
2021/09/24 04:13:36;;;;;;;8.10;6.15;;;13.10;14.60;;;;;;5057892;28;20127;-69
2021/09/24 04:16:10;;;;;;;9.82;6.10;;;13.20;14.70;;;;;;5044262;28;20044;-69
2021/09/24 04:18:38;;;;;;;6.65;5.72;;;13.20;14.90;;;;;;5040259;28;20052;-69
2021/09/24 04:21:08;;;;;;;9.23;5.95;;;13.20;14.80;;;;;;5060677;28;20099;-70
2021/09/24 04:23:39;;;;;;;8.88;5.97;;;13.30;14.60;;;;;;5061070;28;20048;-70
2021/09/24 04:26:08;;;;;;;9.38;5.50;;;13.40;14.40;;;;;;5035144;28;20041;-70
2021/09/24 04:28:37;;;;;;;11.55;5.57;;;13.40;14.00;;;;;;5061440;28;20132;-70
2021/09/24 04:31:11;;;;;;;8.13;5.97;;;13.50;13.80;;;;;;5058351;28;20047;-69
2021/09/24 04:33:44;;;;;;;8.63;5.72;;;13.50;13.80;;;;;;5052849;28;20496;-70
2021/09/24 04:36:12;;;;;;;10.75;6.40;;;13.40;14.00;;;;;;5039824;28;20052;-70
2021/09/24 04:38:44;;;;;;;12.90;6.25;;;13.40;14.10;;;;;;5045023;28;20044;-69
2021/09/24 04:41:12;;;;;;;7.13;5.57;;;13.40;13.80;;;;;;5043837;28;20095;-71
2021/09/24 04:43:42;;;;;;;9.38;6.30;;;13.40;14.00;;;;;;5058029;28;20544;-70
2021/09/24 04:46:13;;;;;;;9.25;6.03;;;13.30;14.50;;;;;;5060322;28;20040;-70
2021/09/24 04:48:44;;;;;;;9.05;5.93;;;13.30;14.60;;;;;;5062735;28;20466;-69
2021/09/24 04:51:18;;;;;;;16.00;6.35;;;13.20;15.10;;;;;;5056867;28;20404;-69
2021/09/24 04:53:51;;;;;;;12.57;6.88;;;13.20;15.00;;;;;;5061073;28;20492;-70
2021/09/24 04:56:24;;;;;;;13.38;5.95;;;13.20;15.40;;;;;;5063825;28;20037;-69
2021/09/24 04:58:53;;;;;;;11.13;5.88;;;13.20;15.40;;;;;;5056914;28;20044;-69
2021/09/24 05:01:23;;;;;;;17.50;6.70;;;13.10;15.60;;;;;;5060527;28;20056;-69
2021/09/24 05:03:52;;;;;;;9.95;5.65;;;13.10;15.90;;;;;;5063630;28;20520;-69
2021/09/24 05:06:21;;;;;;;9.20;6.10;;;13.10;15.70;;;;;;5059310;28;20499;-70
2021/09/24 05:08:50;;;;;;;14.98;6.30;;;13.10;15.70;;;;;;5033884;28;20207;-70
2021/09/24 05:11:23;;;;;;;11.38;6.13;;;13.10;15.60;;;;;;5060035;28;20052;-70
2021/09/24 05:13:52;;;;;;;7.50;5.65;;;13.10;16.00;;;;;;5061449;28;20048;-70
2021/09/24 05:16:20;;;;;;;9.32;5.47;;;13.10;16.00;;;;;;5061743;28;20041;-70
2021/09/24 05:18:50;;;;;;;9.20;6.03;;;13.10;16.40;;;;;;5063716;28;20068;-69
2021/09/24 05:21:18;;;;;;;8.07;5.90;;;13.10;16.20;;;;;;5061847;28;20071;-69
2021/09/24 05:23:50;;;;;;;9.52;5.95;;;13.00;15.90;;;;;;5061316;28;20178;-68
2021/09/24 05:26:25;;;;;;;7.68;5.80;;;13.00;15.80;;;;;;5059433;28;20158;-69
2021/09/24 05:28:54;;;;;;;10.50;6.65;;;13.00;15.90;;;;;;5063426;28;20033;-70
2021/09/24 05:31:25;;;;;;;14.98;6.20;;;13.00;16.00;;;;;;5063959;28;20090;-70
2021/09/24 05:33:54;;;;;;;8.63;6.20;;;13.00;15.60;;;;;;5061077;28;20044;-69
2021/09/24 05:36:22;;;;;;;9.82;6.15;;;13.00;16.00;;;;;;5060975;28;20041;-70
2021/09/24 05:38:53;;;;;;;8.40;6.93;;;13.00;16.20;;;;;;5063636;28;20653;-69
2021/09/24 05:41:26;;;;;;;10.32;6.35;;;13.00;16.20;;;;;;5064076;28;20051;-69
2021/09/24 05:44:01;;;;;;;8.30;5.65;;;13.00;16.10;;;;;;5059835;28;20177;-70
2021/09/24 05:46:31;;;;;;;11.27;6.55;;;13.10;15.90;;;;;;5063216;28;20053;-68
2021/09/24 05:49:00;;;;;;;10.13;6.03;;;13.20;15.60;;;;;;5043582;28;20717;-69
2021/09/24 05:51:32;;;;;;;10.30;7.13;;;13.20;15.10;;;;;;5056060;28;20059;-70
2021/09/24 05:54:00;;;;;;;10.35;6.82;;;13.20;15.00;;;;;;5064070;28;20047;-70
2021/09/24 05:56:34;;;;;;;8.40;6.65;;;13.20;14.50;;;;;;5063517;28;20135;-69
2021/09/24 05:59:04;;;;;;;9.75;6.68;;;13.30;14.70;;;;;;5057920;28;20067;-68
2021/09/24 06:01:36;;;;;;;8.77;6.00;;;13.30;14.40;;;;;;5062714;28;20048;-69
2021/09/24 06:04:10;;;;;;;8.88;6.47;;;13.40;14.30;;;;;;5064363;28;20426;-70
2021/09/24 06:06:38;;;;;;;9.05;6.22;;;13.50;13.80;;;;;;5061463;28;20468;-69
2021/09/24 06:09:06;;;;;;;7.65;5.80;;;13.50;13.70;;;;;;5059828;28;20488;-70
2021/09/24 06:11:35;;;;;;;11.65;6.80;;;13.60;13.30;;;;;;5046870;28;20048;-68
2021/09/24 06:14:05;;;;;;;9.13;6.50;;;13.60;13.00;;;;;;5062983;28;20040;-69
2021/09/24 06:16:37;;;;;;;16.40;6.22;;;13.70;12.90;;;;;;5060295;28;20064;-69
2021/09/24 06:19:07;;;;;;;9.88;6.63;;;13.70;12.60;;;;;;5061619;28;20102;-69
2021/09/24 06:21:37;;;;;;;13.40;6.40;;;13.80;12.30;;;;;;5056530;28;20056;-69
2021/09/24 06:24:08;;;;;;;8.70;6.07;;;13.80;12.10;;;;;;5052418;28;20045;-69
2021/09/24 06:26:40;;;;;;;10.35;6.30;;;13.90;11.70;;;;;;5062869;28;20045;-70
2021/09/24 06:29:08;;;;;;;7.75;5.95;;;13.90;11.70;;;;;;5061532;28;20659;-69
2021/09/24 06:31:36;;;;;;;11.55;6.70;;;13.90;11.50;;;;;;5062965;28;20102;-69
2021/09/24 06:34:07;;;;;;;14.68;6.40;;;14.10;11.20;;;;;;5060935;28;20454;-69
2021/09/24 06:36:39;;;;;;;10.50;6.75;;;14.10;10.50;;;;;;5067944;28;20064;-69
2021/09/24 06:39:09;;;;;;;12.52;6.10;;;14.20;10.60;;;;;;5060842;28;20167;-68
2021/09/24 06:41:38;;;;;;;13.63;6.28;;;14.30;10.00;;;;;;5059082;28;20072;-69
2021/09/24 06:44:11;;;;;;;14.10;6.90;;;14.40;9.70;;;;;;5063496;28;20045;-68
2021/09/24 06:46:42;;;;;;;9.05;5.88;;;14.50;9.40;;;;;;5065644;28;20048;-70
2021/09/24 06:49:10;;;;;;;9.00;5.80;;;14.60;9.30;;;;;;5062585;28;20091;-69
2021/09/24 06:51:41;;;;;;;13.32;6.32;;;14.70;8.50;;;;;;5060016;28;20484;-69
2021/09/24 06:54:09;;;;;;;13.43;6.88;;;14.90;8.00;;;;;;5052055;28;20496;-70
2021/09/24 06:56:37;;;;;;;10.52;5.97;;;14.90;7.40;;;;;;5061325;28;20041;-69
2021/09/24 06:59:09;;;;;;;7.80;5.95;;;15.10;6.90;;;;;;5060802;28;20039;-68
2021/09/24 07:01:38;;;;;;;8.85;5.88;;;15.10;7.40;;;;;;5043271;28;20080;-69
2021/09/24 07:04:06;;;;;;;8.05;5.38;;;15.20;7.00;;;;;;5060809;28;20110;-69
2021/09/24 07:06:34;;;;;;;7.03;5.53;;;15.40;5.90;;;;;;5056912;28;20068;-68
2021/09/24 07:09:06;;;;;;;12.30;5.70;;;15.60;5.10;;;;;;5059421;28;20052;-70
2021/09/24 07:11:34;;;;;;;7.32;5.72;;;15.60;4.20;;;;;;5062555;28;20491;-70
2021/09/24 07:14:08;;;;;;;7.60;5.30;;;15.40;4.70;;;;;;5040276;28;20500;-69
2021/09/24 07:16:39;;;;;;;7.95;5.53;;;15.40;5.00;;;;;;5058664;28;20049;-68
2021/09/24 07:19:09;;;;;;;8.77;6.05;;;15.30;3.90;;;;;;5064054;28;20530;-69
2021/09/24 07:21:39;;;;;;;7.88;5.68;;;15.30;5.20;;;;;;5055496;28;20072;-69
2021/09/24 07:24:09;;;;;;;9.05;5.68;;;15.40;5.20;;;;;;5057545;28;20510;-69
2021/09/24 07:26:39;;;;;;;7.25;5.40;;;15.60;4.10;;;;;;5061541;28;20476;-69
2021/09/24 07:29:11;;;;;;;12.68;7.03;;;15.70;4.20;;;;;;5055651;28;20049;-70
2021/09/24 07:31:40;;;;;;;14.50;7.32;;;15.80;5.30;;;;;;5062846;28;20049;-70
2021/09/24 07:34:09;;;;;;;10.18;6.88;;;15.70;5.80;;;;;;5060087;28;20401;-69
2021/09/24 07:36:37;;;;;;;14.00;7.15;;;15.70;5.90;;;;;;5057662;28;20044;-68
2021/09/24 07:39:06;;;;;;;9.93;6.80;;;15.70;5.30;;;;;;5064256;28;20048;-70
2021/09/24 07:41:38;;;;;;;13.15;6.93;;;15.90;5.00;;;;;;5058539;28;20118;-70
2021/09/24 07:44:07;;;;;;;10.93;6.63;;;15.90;4.70;;;;;;5024842;28;20080;-70
2021/09/24 07:46:36;;;;;;;14.05;7.90;;;16.00;5.10;;;;;;5044644;28;20040;-69
2021/09/24 07:49:08;;;;;;;14.38;7.88;;;16.00;5.00;;;;;;5060792;28;20040;-70
2021/09/24 07:51:37;;;;;;;12.20;7.47;;;16.00;4.70;;;;;;5036500;28;20063;-68
2021/09/24 07:54:06;;;;;;;9.82;6.85;;;16.10;4.50;;;;;;5042831;28;20048;-69
2021/09/24 07:56:34;;;;;;;11.80;6.95;;;16.10;4.50;;;;;;5061832;28;20048;-69
2021/09/24 07:59:03;;;;;;;9.98;7.47;;;16.30;3.30;;;;;;5057302;28;20360;-69
2021/09/24 08:01:31;;;;;;;9.38;7.00;;;16.30;2.90;;;;;;5061943;28;20056;-69
2021/09/24 08:04:05;;;;;;;12.95;8.43;;;16.20;2.50;;;;;;5062075;28;20051;-70
2021/09/24 08:06:33;;;;;;;14.48;7.10;;;16.10;3.00;;;;;;5060844;28;21481;-70
2021/09/24 08:09:01;;;;;;;11.18;7.18;;;16.40;2.80;;;;;;5060509;28;20052;-69
2021/09/24 08:11:30;;;;;;;11.02;7.03;;;16.50;2.30;;;;;;5062424;28;20045;-69
2021/09/24 08:13:59;;;;;;;11.30;7.30;;;16.40;1.90;;;;;;5052610;28;20041;-69
2021/09/24 08:16:33;;;;;;;14.35;7.00;;;16.50;1.20;;;;;;5064726;28;20044;-69
2021/09/24 08:19:01;;;;;;;12.90;7.50;;;16.80;1.10;;;;;;5023103;28;20041;-70
2021/09/24 08:21:30;;;;;;;11.50;6.93;;;16.80;1.10;;;;;;5041426;28;20118;-70
2021/09/24 08:23:58;;;;;;;13.73;7.05;;;16.90;1.20;;;;;;5014664;28;20040;-70
2021/09/24 08:26:31;;;;;;;10.23;7.10;;;17.00;1.00;;;;;;5057816;28;20048;-71
2021/09/24 08:28:59;;;;;;;10.52;7.13;;;17.10;1.00;;;;;;5057217;28;20135;-70
2021/09/24 08:31:29;;;;;;;12.85;6.22;;;17.20;1.00;;;;;;5061065;28;20117;-69
2021/09/24 08:34:07;;;;;;;9.55;6.03;;;17.20;1.00;;;;;;5060311;28;20040;-69
2021/09/24 08:36:37;;;;;;;7.95;5.72;;;17.40;1.00;;;;;;5062054;28;20048;-70
2021/09/24 08:39:08;;;;;;;8.00;5.70;;;17.80;1.00;;;;;;5061528;28;20056;-70
2021/09/24 08:41:38;;;;;;;8.30;5.63;;;18.20;1.00;;;;;;5061258;28;20048;-70
2021/09/24 08:44:10;;;;;;;10.70;5.97;;;18.40;1.00;;;;;;5056436;28;20263;-70
2021/09/24 08:46:48;;;;;;;8.23;5.05;;;18.20;1.00;;;;;;5058394;28;20528;-68
2021/09/24 08:49:21;;;;;;;7.65;5.15;;;18.40;1.00;;;;;;5060057;28;20056;-69
2021/09/24 08:51:53;;;;;;;8.95;5.10;;;18.40;1.00;;;;;;5056827;28;20045;-69
2021/09/24 08:54:24;;;;;;;10.40;5.38;;;18.90;1.00;;;;;;5060862;28;20131;-70
2021/09/24 08:56:54;;;;;;;8.07;5.40;;;18.70;1.00;;;;;;5064289;28;20122;-69
2021/09/24 08:59:28;;;;;;;22.15;13.02;;;19.00;1.00;;;;;;5058197;28;20044;-70
2021/09/24 09:02:00;;;;;;;6.75;4.63;;;19.00;1.00;;;;;;5043742;28;20044;-70
2021/09/24 09:04:46;;;;;;;10.93;5.00;;;19.10;1.00;;;;;;5063669;28;20041;-69
2021/09/24 09:07:21;;;;;;;8.25;5.47;;;19.40;1.00;;;;;;5067811;28;20302;-70
2021/09/24 09:09:53;;;;;;;15.13;5.40;;;19.50;1.00;;;;;;5057962;28;20056;-70
2021/09/24 09:12:27;;;;;;;8.68;5.78;;;19.30;1.00;;;;;;5061418;28;20036;-69
2021/09/24 09:15:00;;;;;;;9.57;5.50;;;19.20;1.00;;;;;;5047639;28;20053;-69
2021/09/24 09:17:33;;;;;;;8.85;5.07;;;19.10;1.00;;;;;;5059500;28;20766;-69
2021/09/24 09:20:16;;;;;;;9.65;5.38;;;18.50;1.00;;;;;;5056158;28;20510;-70
2021/09/24 09:22:49;;;;;;;7.78;4.60;;;18.30;1.00;;;;;;5064899;28;20047;-69
2021/09/24 09:25:26;;;;;;;8.25;5.10;;;18.60;1.00;;;;;;5047211;28;20052;-70
2021/09/24 09:27:59;;;;;;;8.55;4.55;;;18.50;1.00;;;;;;5062195;28;20045;-69
2021/09/24 09:30:29;;;;;;;9.73;5.07;;;18.60;1.00;;;;;;5058629;28;20052;-70
2021/09/24 09:33:04;;;;;;;6.78;5.00;;;18.50;1.00;;;;;;5060457;28;20040;-68
2021/09/24 09:35:41;;;;;;;9.45;5.10;;;18.30;1.00;;;;;;5043578;28;20044;-69
2021/09/24 09:38:20;;;;;;;10.32;4.90;;;18.70;1.00;;;;;;5062646;28;20137;-70
2021/09/24 09:40:56;;;;;;;10.55;4.60;;;18.80;1.00;;;;;;5043766;28;20341;-69
2021/09/24 09:43:32;;;;;;;7.70;4.78;;;19.00;1.00;;;;;;5047643;28;20032;-69
2021/09/24 09:46:03;;;;;;;5.88;4.43;;;18.80;1.00;;;;;;5063503;28;20075;-69
2021/09/24 09:48:31;;;;;;;7.05;4.63;;;18.70;1.00;;;;;;5061458;28;20053;-69
2021/09/24 09:51:05;;;;;;;8.52;5.20;;;18.80;1.00;;;;;;5065836;28;20045;-69
2021/09/24 09:53:35;;;;;;;13.10;5.38;;;18.80;1.00;;;;;;5061822;28;20077;-69
2021/09/24 09:56:06;;;;;;;7.78;5.10;;;19.10;1.00;;;;;;5062662;28;20433;-69
2021/09/24 09:58:39;;;;;;;7.18;4.40;;;19.30;1.00;;;;;;5067191;28;20056;-69
2021/09/24 10:01:10;;;;;;;6.32;4.82;;;19.50;1.00;;;;;;5060541;28;20558;-69
2021/09/24 10:03:40;;;;;;;5.32;4.18;;;19.80;1.00;;;;;;5058508;28;20053;-70
2021/09/24 10:06:24;;;;;;;8.57;4.95;;;20.10;1.00;;;;;;5064967;28;20123;-68
2021/09/24 10:08:59;;;;;;;7.97;4.43;;;19.60;1.00;;;;;;5056533;28;20540;-69
2021/09/24 10:11:33;;;;;;;6.55;4.20;;;19.70;1.00;;;;;;5053182;28;20037;-68
2021/09/24 10:14:04;;;;;;;5.90;3.85;;;20.00;1.00;;;;;;5062303;28;20106;-71
2021/09/24 10:16:34;;;;;;;8.95;4.28;;;19.60;1.00;;;;;;5058740;28;20098;-69
2021/09/24 10:19:03;;;;;;;5.50;4.03;;;19.70;1.00;;;;;;5057422;28;20124;-69
2021/09/24 10:21:54;;;;;;;11.00;3.80;;;19.50;1.00;;;;;;5058258;28;20055;-69
2021/09/24 10:24:23;;;;;;;5.35;3.70;;;19.60;1.00;;;;;;5063116;28;20064;-69
2021/09/24 10:26:58;;;;;;;7.78;4.18;;;19.60;1.00;;;;;;5058090;28;20174;-69
2021/09/24 10:29:30;;;;;;;5.05;3.80;;;19.80;1.00;;;;;;5022645;28;20037;-69
2021/09/24 10:32:14;;;;;;;4.28;2.78;;;20.20;1.00;;;;;;5062331;28;20083;-69
2021/09/24 10:34:57;;;;;;;3.20;2.90;;;20.30;1.00;;;;;;5058260;28;20041;-68
2021/09/24 10:37:31;;;;;;;5.10;3.15;;;19.80;1.00;;;;;;5060949;28;20068;-71
2021/09/24 10:40:26;;;;;;;6.15;3.03;;;19.80;1.00;;;;;;5057670;28;20095;-69
2021/09/24 10:42:58;;;;;;;6.93;4.22;;;19.80;1.00;;;;;;5056832;28;20101;-68
2021/09/24 10:45:38;;;;;;;5.60;4.00;;;19.80;1.00;;;;;;5056705;28;20055;-69
2021/09/24 10:48:17;;;;;;;5.97;3.45;;;19.60;1.00;;;;;;5053971;28;20045;-69
2021/09/24 10:50:57;;;;;;;5.80;4.13;;;20.00;1.00;;;;;;5055020;28;20251;-70
2021/09/24 10:53:40;;;;;;;7.22;3.72;;;19.90;1.00;;;;;;5051942;28;20059;-70
2021/09/24 10:56:30;;;;;;;5.55;4.00;;;20.70;1.00;;;;;;5061951;28;20044;-69
2021/09/24 10:59:24;;;;;;;5.53;3.53;;;20.40;1.00;;;;;;5051903;28;20040;-70
2021/09/24 11:01:56;;;;;;;6.88;3.95;;;20.70;1.00;;;;;;5056013;28;20511;-69
2021/09/24 11:04:42;;;;;;;5.15;3.47;;;20.90;1.00;;;;;;5053921;28;20044;-70
2021/09/24 11:07:11;;;;;;;4.47;3.55;;;21.00;1.00;;;;;;5060751;28;20499;-69
2021/09/24 11:09:53;;;;;;;10.73;3.83;;;21.00;1.00;;;;;;5056339;28;20124;-69
2021/09/24 11:12:25;;;;;;;5.50;3.47;;;21.20;1.00;;;;;;5057423;28;21237;-70
2021/09/24 11:15:07;;;;;;;;;;;21.30;1.00;;;;;;5057738;28;20163;-69
2021/09/24 11:17:45;;;;;;;5.65;3.60;;;21.60;1.00;;;;;;5054988;28;19925;-69
2021/09/24 11:20:29;;;;;;;4.60;3.10;;;21.50;1.00;;;;;;5058042;28;20082;-69
2021/09/24 11:22:58;;;;;;;4.47;3.10;;;21.60;1.00;;;;;;5047010;28;20102;-70
2021/09/24 11:25:29;;;;;;;5.93;4.05;;;21.40;1.00;;;;;;5039527;28;20069;-69
2021/09/24 11:28:03;;;;;;;4.63;3.17;;;21.70;1.00;;;;;;5062386;28;20440;-70
2021/09/24 11:30:38;;;;;;;;;;;21.60;1.00;;;;;;5061213;28;20036;-68
2021/09/24 11:33:09;;;;;;;4.60;3.25;;;21.60;1.00;;;;;;5054421;28;19925;-69
2021/09/24 11:35:44;;;;;;;6.13;3.38;;;21.70;1.00;;;;;;5057310;28;20072;-69
2021/09/24 11:38:18;;;;;;;6.93;3.35;;;21.60;1.00;;;;;;5056830;28;20049;-70
2021/09/24 11:40:54;;;;;;;4.43;3.45;;;21.60;1.00;;;;;;5041471;28;20048;-70
2021/09/24 11:43:27;;;;;;;4.38;3.42;;;21.80;1.00;;;;;;5042441;28;20094;-69
2021/09/24 11:46:12;;;;;;;5.25;3.53;;;21.80;1.00;;;;;;5053639;28;20182;-70
2021/09/24 11:48:54;;;;;;;6.85;3.30;;;21.80;1.00;;;;;;5030457;28;20115;-70
2021/09/24 11:51:24;;;;;;;5.28;3.30;;;21.80;1.00;;;;;;5051527;28;20118;-70
2021/09/24 11:53:58;;;;;;;3.97;2.75;;;21.20;1.00;;;;;;5061483;28;20053;-71
2021/09/24 11:56:35;;;;;;;5.13;3.45;;;21.60;1.00;;;;;;5042627;28;20045;-71
2021/09/24 11:59:08;;;;;;;3.47;3.05;;;21.80;1.00;;;;;;5052135;28;20044;-69
2021/09/24 12:01:42;;;;;;;4.22;2.65;;;21.60;1.00;;;;;;5058967;28;20089;-70
2021/09/24 12:04:12;;;;;;;5.35;3.78;;;22.00;1.00;;;;;;5063188;28;20055;-70
2021/09/24 12:06:50;;;;;;;6.95;3.42;;;22.00;1.00;;;;;;5055445;28;20048;-70
2021/09/24 12:09:22;;;;;;;5.75;3.20;;;22.00;1.00;;;;;;5060313;28;21762;-70
2021/09/24 12:11:57;;;;;;;3.75;2.80;;;21.80;1.00;;;;;;5056580;28;20071;-69
2021/09/24 12:14:32;;;;;;;5.65;3.42;;;22.00;1.00;;;;;;5056572;28;20936;-70
2021/09/24 12:17:00;;;;;;;8.93;3.20;;;21.40;1.00;;;;;;5058970;28;20063;-69
2021/09/24 12:19:38;;;;;;;6.63;3.20;;;21.70;1.00;;;;;;5052117;28;20033;-69
2021/09/24 12:22:11;;;;;;;9.88;3.90;;;21.70;1.00;;;;;;5038607;28;20539;-70
2021/09/24 12:24:45;;;;;;;6.82;2.92;;;22.00;1.00;;;;;;5052959;28;20052;-70
2021/09/24 12:27:26;;;;;;;5.28;3.50;;;22.20;1.00;;;;;;5055870;28;20244;-69
2021/09/24 12:29:55;;;;;;;5.47;3.65;;;21.50;1.00;;;;;;5036618;28;20056;-69
2021/09/24 12:32:29;;;;;;;3.83;3.30;;;21.80;1.00;;;;;;5057640;28;20554;-69
2021/09/24 12:35:02;;;;;;;8.90;4.30;;;22.00;1.00;;;;;;5054990;28;20543;-69
2021/09/24 12:37:35;;;;;;;4.25;3.30;;;21.80;1.00;;;;;;5058433;28;20044;-69
2021/09/24 12:40:08;;;;;;;5.25;3.17;;;21.80;1.00;;;;;;5052917;28;20044;-69
2021/09/24 12:42:42;;;;;;;4.53;3.03;;;22.10;1.00;;;;;;5059360;28;20044;-69
2021/09/24 12:45:29;;;;;;;4.47;3.40;;;21.90;1.00;;;;;;5061640;28;20044;-70
2021/09/24 12:48:08;;;;;;;8.35;3.10;;;22.10;1.00;;;;;;5047101;28;20052;-70
2021/09/24 12:50:38;;;;;;;7.43;3.15;;;22.10;1.00;;;;;;5052890;28;20037;-68
2021/09/24 12:53:08;;;;;;;5.05;3.53;;;21.60;1.00;;;;;;5056969;28;20341;-69
2021/09/24 12:55:37;;;;;;;7.00;3.38;;;22.20;1.00;;;;;;5055480;28;20047;-69
2021/09/24 12:58:06;;;;;;;4.70;3.13;;;22.30;1.00;;;;;;5037779;28;20064;-69
2021/09/24 13:00:36;;;;;;;5.13;3.35;;;22.40;1.00;;;;;;5033799;28;20069;-70
2021/09/24 13:03:09;;;;;;;7.40;3.40;;;21.80;1.00;;;;;;5055117;28;20052;-69
2021/09/24 13:05:37;;;;;;;7.40;3.05;;;21.70;1.00;;;;;;5050350;28;20083;-69
2021/09/24 13:08:08;;;;;;;5.50;3.33;;;22.00;1.00;;;;;;5056933;28;20094;-69
2021/09/24 13:10:42;;;;;;;4.18;3.08;;;21.80;1.00;;;;;;5057127;28;20048;-69
2021/09/24 13:13:12;;;;;;;4.95;3.45;;;22.30;1.00;;;;;;5055811;28;20044;-69